createdAt,value
2022-12-05T00:00:35.374Z,2.30
2022-12-05T00:01:38.138Z,2.18
2022-12-05T00:02:41.089Z,2.22
2022-12-05T00:03:44.040Z,2.38
2022-12-05T00:04:47.250Z,2.38
2022-12-05T00:05:50.153Z,2.65
2022-12-05T00:06:53.345Z,2.41
2022-12-05T00:07:56.275Z,2.63
2022-12-05T00:08:59.294Z,2.85
2022-12-05T00:10:02.263Z,2.17
2022-12-05T00:11:05.461Z,2.32
2022-12-05T00:12:08.553Z,2.52
2022-12-05T00:13:11.608Z,2.61
2022-12-05T00:14:14.584Z,2.83
2022-12-05T00:15:17.967Z,2.22
2022-12-05T00:16:21.332Z,2.49
2022-12-05T00:17:24.545Z,2.75
2022-12-05T00:18:27.727Z,2.92
2022-12-05T00:19:30.899Z,2.32
2022-12-05T00:20:33.981Z,2.42
2022-12-05T00:21:37.478Z,2.70
2022-12-05T00:22:40.681Z,2.48
2022-12-05T00:23:43.841Z,2.87
2022-12-05T00:24:46.908Z,2.85
2022-12-05T00:25:50.433Z,2.42
2022-12-05T00:26:53.589Z,2.34
2022-12-05T00:27:56.772Z,2.32
2022-12-05T00:29:00.274Z,2.29
2022-12-05T00:30:03.441Z,2.52
2022-12-05T00:31:07.444Z,2.34
2022-12-05T00:32:10.433Z,2.40
2022-12-05T00:33:13.502Z,2.45
2022-12-05T00:34:16.475Z,2.42
2022-12-05T00:35:19.664Z,2.70
2022-12-05T00:36:22.532Z,2.55
2022-12-05T00:37:25.621Z,2.48
2022-12-05T00:38:28.893Z,2.56
2022-12-05T00:39:32.588Z,2.15
2022-12-05T00:40:36.074Z,2.27
2022-12-05T00:41:39.050Z,2.46
2022-12-05T00:42:41.938Z,2.29
2022-12-05T00:43:45.314Z,2.62
2022-12-05T00:44:48.401Z,2.27
2022-12-05T00:45:51.790Z,2.37
2022-12-05T00:46:54.980Z,2.54
2022-12-05T00:47:57.937Z,2.45
2022-12-05T00:49:00.721Z,2.77
2022-12-05T00:50:03.497Z,2.34
2022-12-05T00:51:06.662Z,2.44
2022-12-05T00:52:09.741Z,2.81
2022-12-05T00:53:13.245Z,2.68
2022-12-05T00:54:16.311Z,2.67
2022-12-05T00:55:19.717Z,2.61
2022-12-05T00:56:22.877Z,2.39
2022-12-05T00:57:25.619Z,2.44
2022-12-05T00:58:28.528Z,2.37
2022-12-05T00:59:31.807Z,2.48
2022-12-05T01:00:34.896Z,2.82
2022-12-05T01:01:38.167Z,2.63
2022-12-05T01:02:41.734Z,2.30
2022-12-05T01:03:45.060Z,2.33
2022-12-05T01:04:48.159Z,2.57
2022-12-05T01:05:51.523Z,2.48
2022-12-05T01:06:54.697Z,2.66
2022-12-05T01:07:57.653Z,2.89
2022-12-05T01:09:00.879Z,2.47
2022-12-05T01:10:03.737Z,2.53
2022-12-05T01:11:06.612Z,2.41
2022-12-05T01:12:09.485Z,2.54
2022-12-05T01:13:12.385Z,2.54
2022-12-05T01:14:15.360Z,2.79
2022-12-05T01:15:18.214Z,3.00
2022-12-05T01:16:21.362Z,3.01
2022-12-05T01:17:24.990Z,2.49
2022-12-05T01:18:27.785Z,2.66
2022-12-05T01:19:30.833Z,3.15
2022-12-05T01:20:33.714Z,2.68
2022-12-05T01:21:36.588Z,2.43
2022-12-05T01:22:39.660Z,2.73
2022-12-05T01:23:42.654Z,2.81
2022-12-05T01:24:46.024Z,3.06
2022-12-05T01:25:49.016Z,2.88
2022-12-05T01:26:52.399Z,2.80
2022-12-05T01:27:55.792Z,2.76
2022-12-05T01:28:58.892Z,2.79
2022-12-05T01:30:01.836Z,2.79
2022-12-05T01:31:04.615Z,2.55
2022-12-05T01:32:07.454Z,2.79
2022-12-05T01:33:10.578Z,3.38
2022-12-05T01:34:13.433Z,3.38
2022-12-05T01:35:16.821Z,3.46
2022-12-05T01:36:20.010Z,2.71
2022-12-05T01:37:23.091Z,2.69
2022-12-05T01:38:25.953Z,3.15
2022-12-05T01:39:28.522Z,2.96
2022-12-05T01:40:31.709Z,2.74
2022-12-05T01:41:35.195Z,2.49
2022-12-05T01:42:38.589Z,2.68
2022-12-05T01:43:42.068Z,2.46
2022-12-05T01:44:45.452Z,2.65
2022-12-05T01:45:48.591Z,2.73
2022-12-05T01:46:51.889Z,2.73
2022-12-05T01:47:55.210Z,2.54
2022-12-05T01:48:58.710Z,2.77
2022-12-05T01:50:01.568Z,2.94
2022-12-05T01:51:04.449Z,3.00
2022-12-05T01:52:07.524Z,2.42
2022-12-05T01:53:10.712Z,2.52
2022-12-05T01:54:13.800Z,2.64
2022-12-05T01:55:16.552Z,2.79
2022-12-05T01:56:19.532Z,2.56
2022-12-05T01:57:22.827Z,2.81
2022-12-05T01:58:26.110Z,2.65
2022-12-05T01:59:29.602Z,2.97
2022-12-05T02:00:32.468Z,2.98
2022-12-05T02:01:35.875Z,2.77
2022-12-05T02:02:38.998Z,2.65
2022-12-05T02:03:41.910Z,2.75
2022-12-05T02:04:45.533Z,2.50
2022-12-05T02:05:48.673Z,2.40
2022-12-05T02:06:52.064Z,2.43
2022-12-05T02:07:55.116Z,2.36
2022-12-05T02:08:58.020Z,2.85
2022-12-05T02:10:01.118Z,3.28
2022-12-05T02:11:03.882Z,2.59
2022-12-05T02:12:06.955Z,2.47
2022-12-05T02:13:09.957Z,2.91
2022-12-05T02:14:12.811Z,2.64
2022-12-05T02:15:16.085Z,2.35
2022-12-05T02:16:19.882Z,2.40
2022-12-05T02:17:22.965Z,2.68
2022-12-05T02:18:26.244Z,2.45
2022-12-05T02:19:29.432Z,2.62
2022-12-05T02:20:33.021Z,2.44
2022-12-05T02:21:36.240Z,2.52
2022-12-05T02:22:39.484Z,2.76
2022-12-05T02:23:42.567Z,2.55
2022-12-05T02:24:45.548Z,2.78
2022-12-05T02:25:48.839Z,2.76
2022-12-05T02:26:51.910Z,3.52
2022-12-05T02:27:55.093Z,2.56
2022-12-05T02:28:58.073Z,2.80
2022-12-05T02:30:01.152Z,2.44
2022-12-05T02:31:04.369Z,2.52
2022-12-05T02:32:07.400Z,2.32
2022-12-05T02:33:10.175Z,2.72
2022-12-05T02:34:13.059Z,2.47
2022-12-05T02:35:16.157Z,2.65
2022-12-05T02:36:19.212Z,2.55
2022-12-05T02:37:21.996Z,2.22
2022-12-05T02:38:25.372Z,2.56
2022-12-05T02:39:28.680Z,2.82
2022-12-05T02:40:31.428Z,2.72
2022-12-05T02:41:34.421Z,2.34
2022-12-05T02:42:37.384Z,2.40
2022-12-05T02:43:40.361Z,2.53
2022-12-05T02:44:43.432Z,2.46
2022-12-05T02:45:47.096Z,2.26
2022-12-05T02:46:50.420Z,2.12
2022-12-05T02:47:53.907Z,2.15
2022-12-05T02:48:57.296Z,2.52
2022-12-05T02:50:00.802Z,2.60
2022-12-05T02:51:03.568Z,2.54
2022-12-05T02:52:06.732Z,2.76
2022-12-05T02:53:09.829Z,2.35
2022-12-05T02:54:13.005Z,2.18
2022-12-05T02:55:16.177Z,2.05
2022-12-05T02:56:18.967Z,2.05
2022-12-05T02:57:22.065Z,2.30
2022-12-05T02:58:24.910Z,2.45
2022-12-05T02:59:28.024Z,2.27
2022-12-05T03:00:31.686Z,2.60
2022-12-05T03:01:34.816Z,2.36
2022-12-05T03:02:38.063Z,2.59
2022-12-05T03:03:41.230Z,2.29
2022-12-05T03:04:44.431Z,2.30
2022-12-05T03:05:48.325Z,2.34
2022-12-05T03:06:51.483Z,2.25
2022-12-05T03:07:54.406Z,2.42
2022-12-05T03:08:57.241Z,2.68
2022-12-05T03:10:00.379Z,2.09
2022-12-05T03:11:03.591Z,2.38
2022-12-05T03:12:06.916Z,2.28
2022-12-05T03:13:13.859Z,2.14
2022-12-05T03:14:17.155Z,2.39
2022-12-05T03:15:20.330Z,2.14
2022-12-05T03:16:23.700Z,2.28
2022-12-05T03:17:26.685Z,2.38
2022-12-05T03:18:29.774Z,2.25
2022-12-05T03:19:33.149Z,2.18
2022-12-05T03:20:36.650Z,2.44
2022-12-05T03:21:40.448Z,2.51
2022-12-05T03:22:43.724Z,2.25
2022-12-05T03:23:47.210Z,2.26
2022-12-05T03:24:50.192Z,2.39
2022-12-05T03:25:53.160Z,2.29
2022-12-05T03:26:56.465Z,2.31
2022-12-05T03:27:59.425Z,2.14
2022-12-05T03:29:02.619Z,2.45
2022-12-05T03:30:05.283Z,2.40
2022-12-05T03:31:08.099Z,2.36
2022-12-05T03:32:11.153Z,2.36
2022-12-05T03:33:14.722Z,2.30
2022-12-05T03:34:18.214Z,2.41
2022-12-05T03:35:21.195Z,2.19
2022-12-05T03:36:24.173Z,2.38
2022-12-05T03:37:27.561Z,2.37
2022-12-05T03:38:30.734Z,2.27
2022-12-05T03:39:34.016Z,2.41
2022-12-05T03:40:37.101Z,2.43
2022-12-05T03:41:40.276Z,2.08
2022-12-05T03:42:43.460Z,2.02
2022-12-05T03:43:46.740Z,2.27
2022-12-05T03:44:49.617Z,2.38
2022-12-05T03:45:52.847Z,2.47
2022-12-05T03:46:56.114Z,2.55
2022-12-05T03:47:59.265Z,2.27
2022-12-05T03:49:02.547Z,2.34
2022-12-05T03:50:05.843Z,2.49
2022-12-05T03:51:08.656Z,2.65
2022-12-05T03:52:11.884Z,2.44
2022-12-05T03:53:20.063Z,2.19
2022-12-05T03:54:19.292Z,2.19
2022-12-05T03:55:22.353Z,2.05
2022-12-05T03:56:25.325Z,2.35
2022-12-05T03:57:28.532Z,2.45
2022-12-05T03:58:31.603Z,2.38
2022-12-05T03:59:34.547Z,2.46
2022-12-05T04:00:37.556Z,2.15
2022-12-05T04:01:40.627Z,2.36
2022-12-05T04:02:44.015Z,2.40
2022-12-05T04:03:47.029Z,2.13
2022-12-05T04:04:50.067Z,2.65
2022-12-05T04:05:53.360Z,2.60
2022-12-05T04:06:56.443Z,2.45
2022-12-05T04:08:00.567Z,2.36
2022-12-05T04:09:03.528Z,2.29
2022-12-05T04:10:06.411Z,2.42
2022-12-05T04:11:09.791Z,2.19
2022-12-05T04:12:12.870Z,2.59
2022-12-05T04:13:15.748Z,2.31
2022-12-05T04:14:19.021Z,2.12
2022-12-05T04:15:21.904Z,2.60
2022-12-05T04:16:25.204Z,2.53
2022-12-05T04:17:27.952Z,2.36
2022-12-05T04:18:30.926Z,2.32
2022-12-05T04:19:33.911Z,2.39
2022-12-05T04:20:36.803Z,2.35
2022-12-05T04:21:40.408Z,2.35
2022-12-05T04:22:43.541Z,2.25
2022-12-05T04:23:47.946Z,2.43
2022-12-05T04:24:50.932Z,2.31
2022-12-05T04:25:54.020Z,2.25
2022-12-05T04:26:57.199Z,2.72
2022-12-05T04:28:00.390Z,2.87
2022-12-05T04:29:03.565Z,2.95
2022-12-05T04:30:06.754Z,2.14
2022-12-05T04:31:09.991Z,2.67
2022-12-05T04:32:13.103Z,2.68
2022-12-05T04:33:16.393Z,2.45
2022-12-05T04:34:19.273Z,2.83
2022-12-05T04:35:22.036Z,2.62
2022-12-05T04:36:25.448Z,2.52
2022-12-05T04:37:28.512Z,2.68
2022-12-05T04:38:31.909Z,2.85
2022-12-05T04:39:35.499Z,2.72
2022-12-05T04:40:39.112Z,2.93
2022-12-05T04:41:42.568Z,3.25
2022-12-05T04:42:45.333Z,3.12
2022-12-05T04:43:48.421Z,3.01
2022-12-05T04:44:51.298Z,3.02
2022-12-05T04:45:54.059Z,3.04
2022-12-05T04:46:57.319Z,3.00
2022-12-05T04:48:00.762Z,2.81
2022-12-05T04:49:03.707Z,2.87
2022-12-05T04:50:06.485Z,2.80
2022-12-05T04:51:09.400Z,2.75
2022-12-05T04:52:12.646Z,2.92
2022-12-05T04:53:15.719Z,2.91
2022-12-05T04:54:18.798Z,3.15
2022-12-05T04:55:21.979Z,3.31
2022-12-05T04:56:24.966Z,2.82
2022-12-05T04:57:28.139Z,2.96
2022-12-05T04:58:31.216Z,3.18
2022-12-05T04:59:34.202Z,3.17
2022-12-05T05:00:37.481Z,3.16
2022-12-05T05:01:40.314Z,3.59
2022-12-05T05:02:44.715Z,3.06
2022-12-05T05:03:47.855Z,3.04
2022-12-05T05:04:50.612Z,3.01
2022-12-05T05:05:54.335Z,3.37
2022-12-05T05:06:56.988Z,3.33
2022-12-05T05:08:00.253Z,3.32
2022-12-05T05:09:03.273Z,3.20
2022-12-05T05:10:06.272Z,2.90
2022-12-05T05:11:09.029Z,3.44
2022-12-05T05:12:17.228Z,3.52
2022-12-05T05:13:16.076Z,3.11
2022-12-05T05:14:19.774Z,3.31
2022-12-05T05:15:22.956Z,3.07
2022-12-05T05:16:27.129Z,2.95
2022-12-05T05:17:37.377Z,3.39
2022-12-05T05:18:40.170Z,3.63
2022-12-05T05:19:43.250Z,3.18
2022-12-05T05:20:46.147Z,3.18
2022-12-05T05:21:48.813Z,2.99
2022-12-05T05:23:01.395Z,3.21
2022-12-05T05:24:04.174Z,3.03
2022-12-05T05:25:07.058Z,2.96
2022-12-05T05:26:10.469Z,3.40
2022-12-05T05:27:13.425Z,3.27
2022-12-05T05:28:16.184Z,3.15
2022-12-05T05:29:19.363Z,3.45
2022-12-05T05:30:22.560Z,3.25
2022-12-05T05:31:25.635Z,3.22
2022-12-05T05:32:28.613Z,3.11
2022-12-05T05:33:31.587Z,2.84
2022-12-05T05:34:35.178Z,3.69
2022-12-05T05:35:38.671Z,4.36
2022-12-05T05:36:41.740Z,4.08
2022-12-05T05:37:44.823Z,4.19
2022-12-05T05:38:48.307Z,3.96
2022-12-05T05:39:51.389Z,3.27
2022-12-05T05:40:54.463Z,3.29
2022-12-05T05:41:57.440Z,2.94
2022-12-05T05:43:01.052Z,3.65
2022-12-05T05:44:04.266Z,4.59
2022-12-05T05:45:07.710Z,4.42
2022-12-05T05:46:11.147Z,4.43
2022-12-05T05:47:14.283Z,3.25
2022-12-05T05:48:17.378Z,2.80
2022-12-05T05:49:20.426Z,2.81
2022-12-05T05:50:23.609Z,3.28
2022-12-05T05:51:27.010Z,3.09
2022-12-05T05:52:30.311Z,3.23
2022-12-05T05:53:33.569Z,3.46
2022-12-05T05:54:36.644Z,3.18
2022-12-05T05:55:39.743Z,3.60
2022-12-05T05:56:43.134Z,3.85
2022-12-05T05:57:47.845Z,3.57
2022-12-05T05:58:50.610Z,3.98
2022-12-05T05:59:53.593Z,4.15
2022-12-05T06:00:56.982Z,3.82
2022-12-05T06:02:00.255Z,4.15
2022-12-05T06:03:03.307Z,3.18
2022-12-05T06:04:06.571Z,2.71
2022-12-05T06:05:10.044Z,2.77
2022-12-05T06:06:13.295Z,2.54
2022-12-05T06:07:15.964Z,2.90
2022-12-05T06:08:19.292Z,3.25
2022-12-05T06:09:22.636Z,3.81
2022-12-05T06:10:26.426Z,3.97
2022-12-05T06:11:29.300Z,3.50
2022-12-05T06:12:32.296Z,3.00
2022-12-05T06:13:35.055Z,3.29
2022-12-05T06:14:37.846Z,3.78
2022-12-05T06:15:41.326Z,3.29
2022-12-05T06:16:44.395Z,3.62
2022-12-05T06:17:47.268Z,3.87
2022-12-05T06:18:50.159Z,3.59
2022-12-05T06:19:52.826Z,3.68
2022-12-05T06:20:55.785Z,4.02
2022-12-05T06:21:58.768Z,3.79
2022-12-05T06:23:02.186Z,3.31
2022-12-05T06:24:04.929Z,3.18
2022-12-05T06:25:08.012Z,3.85
2022-12-05T06:26:10.671Z,3.22
2022-12-05T06:27:13.750Z,3.32
2022-12-05T06:28:16.669Z,3.48
2022-12-05T06:29:24.019Z,3.59
2022-12-05T06:30:24.340Z,3.74
2022-12-05T06:31:27.770Z,3.67
2022-12-05T06:32:30.600Z,3.69
2022-12-05T06:33:34.018Z,4.58
2022-12-05T06:34:36.746Z,4.51
2022-12-05T06:35:40.244Z,4.37
2022-12-05T06:36:43.324Z,4.18
2022-12-05T06:37:46.390Z,4.21
2022-12-05T06:38:49.191Z,4.18
2022-12-05T06:39:51.938Z,4.37
2022-12-05T06:40:54.697Z,4.37
2022-12-05T06:41:58.404Z,4.82
2022-12-05T06:43:01.432Z,4.68
2022-12-05T06:44:04.769Z,4.77
2022-12-05T06:45:08.152Z,4.47
2022-12-05T06:46:11.444Z,4.65
2022-12-05T06:47:15.236Z,4.26
2022-12-05T06:48:18.006Z,4.35
2022-12-05T06:49:29.933Z,4.22
2022-12-05T06:50:28.705Z,4.28
2022-12-05T06:51:31.754Z,3.71
2022-12-05T06:52:35.546Z,3.89
2022-12-05T06:53:39.237Z,3.42
2022-12-05T06:54:42.529Z,4.09
2022-12-05T06:55:45.310Z,4.45
2022-12-05T06:56:48.289Z,4.11
2022-12-05T06:57:51.790Z,3.75
2022-12-05T06:58:54.740Z,4.00
2022-12-05T06:59:58.064Z,4.00
2022-12-05T07:01:01.379Z,4.32
2022-12-05T07:02:04.621Z,3.92
2022-12-05T07:03:07.624Z,3.95
2022-12-05T07:04:10.565Z,3.48
2022-12-05T07:05:14.352Z,3.84
2022-12-05T07:06:20.491Z,3.65
2022-12-05T07:07:23.275Z,3.91
2022-12-05T07:08:26.449Z,3.22
2022-12-05T07:09:29.938Z,3.38
2022-12-05T07:10:33.126Z,3.81
2022-12-05T07:11:35.904Z,3.28
2022-12-05T07:12:38.966Z,3.45
2022-12-05T07:13:42.050Z,3.37
2022-12-05T07:14:48.240Z,3.21
2022-12-05T07:15:50.553Z,3.13
2022-12-05T07:16:53.715Z,2.95
2022-12-05T07:17:57.557Z,3.02
2022-12-05T07:19:00.830Z,3.08
2022-12-05T07:20:03.610Z,2.82
2022-12-05T07:21:14.507Z,3.29
2022-12-05T07:22:15.680Z,3.19
2022-12-05T07:23:15.691Z,2.91
2022-12-05T07:24:18.575Z,3.28
2022-12-05T07:25:21.762Z,3.20
2022-12-05T07:26:24.854Z,3.42
2022-12-05T07:27:28.502Z,3.58
2022-12-05T07:28:31.820Z,3.30
2022-12-05T07:29:35.191Z,3.20
2022-12-05T07:30:38.291Z,3.24
2022-12-05T07:31:41.823Z,3.29
2022-12-05T07:32:45.067Z,3.21
2022-12-05T07:33:48.155Z,3.37
2022-12-05T07:34:55.320Z,3.26
2022-12-05T07:35:56.245Z,3.18
2022-12-05T07:36:59.741Z,3.19
2022-12-05T07:38:02.600Z,3.33
2022-12-05T07:39:05.896Z,3.30
2022-12-05T07:40:08.764Z,3.35
2022-12-05T07:41:13.647Z,3.15
2022-12-05T07:42:16.664Z,3.47
2022-12-05T07:43:19.648Z,3.67
2022-12-05T07:44:22.828Z,3.59
2022-12-05T07:45:26.268Z,3.38
2022-12-05T07:46:29.133Z,3.53
2022-12-05T07:47:32.414Z,3.81
2022-12-05T07:48:35.354Z,3.08
2022-12-05T07:49:38.210Z,3.26
2022-12-05T07:50:41.397Z,3.48
2022-12-05T07:51:44.385Z,3.86
2022-12-05T07:52:47.565Z,3.41
2022-12-05T07:53:50.865Z,3.58
2022-12-05T07:54:54.437Z,3.22
2022-12-05T07:55:57.444Z,3.96
2022-12-05T07:57:01.199Z,3.94
2022-12-05T07:58:04.687Z,4.24
2022-12-05T07:59:08.081Z,4.25
2022-12-05T08:00:10.873Z,3.99
2022-12-05T08:01:14.074Z,4.43
2022-12-05T08:02:17.287Z,4.40
2022-12-05T08:03:20.391Z,4.22
2022-12-05T08:04:24.595Z,4.28
2022-12-05T08:05:27.699Z,4.39
2022-12-05T08:06:30.883Z,4.56
2022-12-05T08:07:36.025Z,4.12
2022-12-05T08:08:39.285Z,4.09
2022-12-05T08:09:42.573Z,3.96
2022-12-05T08:10:46.051Z,4.05
2022-12-05T08:11:52.559Z,4.35
2022-12-05T08:12:53.839Z,3.97
2022-12-05T08:13:57.252Z,3.79
2022-12-05T08:15:00.314Z,4.46
2022-12-05T08:16:02.801Z,4.74
2022-12-05T08:17:05.730Z,4.27
2022-12-05T08:18:08.428Z,4.30
2022-12-05T08:19:11.724Z,4.36
2022-12-05T08:20:14.788Z,4.55
2022-12-05T08:21:18.388Z,4.77
2022-12-05T08:22:21.367Z,4.51
2022-12-05T08:23:24.431Z,5.18
2022-12-05T08:24:27.425Z,5.34
2022-12-05T08:25:30.803Z,5.22
2022-12-05T08:26:34.294Z,4.36
2022-12-05T08:27:37.264Z,5.19
2022-12-05T08:28:41.079Z,5.31
2022-12-05T08:29:44.656Z,5.03
2022-12-05T08:30:47.493Z,5.31
2022-12-05T08:31:50.306Z,6.38
2022-12-05T08:32:53.288Z,5.94
2022-12-05T08:33:59.255Z,4.82
2022-12-05T08:35:02.419Z,4.91
2022-12-05T08:36:05.285Z,5.26
2022-12-05T08:37:08.163Z,5.13
2022-12-05T08:38:11.192Z,5.04
2022-12-05T08:39:14.645Z,5.61
2022-12-05T08:40:17.729Z,5.65
2022-12-05T08:41:21.299Z,5.45
2022-12-05T08:42:24.365Z,4.89
2022-12-05T08:43:27.567Z,4.96
2022-12-05T08:44:30.218Z,5.10
2022-12-05T08:45:33.412Z,5.46
2022-12-05T08:46:36.411Z,5.83
2022-12-05T08:47:39.568Z,5.40
2022-12-05T08:48:42.965Z,5.97
2022-12-05T08:49:46.131Z,5.85
2022-12-05T08:50:49.549Z,5.36
2022-12-05T08:51:52.608Z,5.62
2022-12-05T08:52:56.808Z,5.92
2022-12-05T08:53:59.724Z,6.40
2022-12-05T08:55:03.268Z,6.21
2022-12-05T08:56:06.574Z,5.99
2022-12-05T08:57:09.943Z,6.01
2022-12-05T08:58:13.252Z,6.02
2022-12-05T08:59:17.020Z,6.72
2022-12-05T09:00:20.106Z,7.03
2022-12-05T09:01:23.327Z,6.27
2022-12-05T09:02:26.131Z,5.43
2022-12-05T09:03:29.249Z,6.07
2022-12-05T09:04:32.021Z,5.83
2022-12-05T09:05:35.100Z,5.78
2022-12-05T09:06:37.766Z,5.94
2022-12-05T09:07:41.356Z,5.40
2022-12-05T09:08:44.348Z,5.93
2022-12-05T09:09:47.317Z,5.48
2022-12-05T09:10:50.601Z,5.08
2022-12-05T09:11:53.766Z,4.96
2022-12-05T09:12:56.869Z,4.98
2022-12-05T09:13:59.822Z,5.35
2022-12-05T09:15:03.232Z,5.95
2022-12-05T09:16:06.472Z,5.01
2022-12-05T09:17:09.575Z,5.38
2022-12-05T09:18:12.781Z,5.46
2022-12-05T09:19:15.672Z,5.59
2022-12-05T09:20:18.441Z,5.64
2022-12-05T09:21:21.385Z,6.06
2022-12-05T09:22:28.360Z,6.41
2022-12-05T09:23:31.353Z,6.21
2022-12-05T09:24:34.410Z,6.22
2022-12-05T09:25:37.692Z,6.35
2022-12-05T09:26:41.440Z,6.03
2022-12-05T09:27:44.985Z,6.20
2022-12-05T09:28:49.016Z,6.31
2022-12-05T09:29:51.956Z,6.54
2022-12-05T09:30:55.390Z,6.41
2022-12-05T09:31:58.438Z,6.69
2022-12-05T09:33:01.409Z,6.75
2022-12-05T09:34:04.912Z,6.80
2022-12-05T09:35:07.767Z,6.99
2022-12-05T09:36:11.052Z,6.50
2022-12-05T09:37:37.384Z,6.75
2022-12-05T09:38:18.744Z,7.28
2022-12-05T09:39:21.837Z,7.03
2022-12-05T09:40:24.805Z,7.55
2022-12-05T09:41:27.609Z,7.27
2022-12-05T09:42:30.750Z,7.17
2022-12-05T09:43:33.936Z,6.69
2022-12-05T09:44:37.224Z,7.22
2022-12-05T09:45:40.501Z,7.33
2022-12-05T09:46:43.732Z,6.60
2022-12-05T09:47:46.763Z,6.39
2022-12-05T09:48:50.156Z,6.66
2022-12-05T09:49:53.127Z,6.11
2022-12-05T09:50:56.107Z,6.02
2022-12-05T09:51:59.492Z,6.32
2022-12-05T09:53:03.086Z,6.33
2022-12-05T09:54:14.996Z,6.32
2022-12-05T09:55:17.737Z,5.01
2022-12-05T09:56:21.144Z,5.45
2022-12-05T09:57:27.811Z,6.04
2022-12-05T09:58:28.728Z,6.07
2022-12-05T09:59:31.999Z,6.11
2022-12-05T10:00:35.402Z,6.31
2022-12-05T10:01:38.667Z,7.38
2022-12-05T10:02:42.172Z,7.81
2022-12-05T10:03:44.944Z,8.15
2022-12-05T10:04:48.825Z,8.46
2022-12-05T10:05:51.524Z,7.61
2022-12-05T10:06:54.788Z,7.05
2022-12-05T10:07:58.013Z,6.55
2022-12-05T10:09:01.060Z,5.52
2022-12-05T10:10:03.865Z,4.98
2022-12-05T10:11:06.723Z,5.16
2022-12-05T10:12:09.474Z,5.18
2022-12-05T10:13:12.564Z,5.87
2022-12-05T10:14:15.626Z,6.37
2022-12-05T10:15:18.704Z,7.05
2022-12-05T10:16:22.048Z,6.74
2022-12-05T10:17:25.108Z,6.71
2022-12-05T10:18:28.044Z,5.26
2022-12-05T10:19:31.024Z,5.48
2022-12-05T10:20:34.127Z,5.16
2022-12-05T10:21:36.879Z,5.38
2022-12-05T10:22:40.469Z,6.22
2022-12-05T10:23:57.653Z,6.59
2022-12-05T10:38:27.200Z,9.01
2022-12-05T10:39:30.566Z,8.41
2022-12-05T10:40:33.642Z,8.43
2022-12-05T10:41:37.265Z,8.22
2022-12-05T10:42:41.234Z,8.78
2022-12-05T10:43:44.537Z,8.57
2022-12-05T10:44:48.001Z,9.32
2022-12-05T10:45:50.973Z,9.48
2022-12-05T10:46:54.820Z,9.64
2022-12-05T10:47:57.794Z,9.94
2022-12-05T10:49:01.031Z,9.53
2022-12-05T10:50:03.803Z,9.86
2022-12-05T10:51:07.110Z,8.52
2022-12-05T10:52:10.573Z,9.59
2022-12-05T10:53:13.872Z,14.44
2022-12-05T10:54:16.994Z,21.18
2022-12-05T10:55:20.001Z,17.94
2022-12-05T10:56:30.129Z,22.58
2022-12-05T10:57:28.161Z,31.04
2022-12-05T10:58:30.911Z,25.02
2022-12-05T10:59:33.980Z,21.58
2022-12-05T11:00:37.152Z,26.50
2022-12-05T11:01:40.704Z,26.76
2022-12-05T11:02:44.766Z,26.99
2022-12-05T11:03:47.431Z,29.29
2022-12-05T11:04:51.087Z,24.51
2022-12-05T11:05:54.836Z,24.13
2022-12-05T11:06:57.901Z,18.64
2022-12-05T11:08:00.909Z,13.71
2022-12-05T11:09:05.180Z,10.74
2022-12-05T11:10:08.569Z,10.74
2022-12-05T11:11:11.756Z,10.53
2022-12-05T11:12:14.733Z,9.60
2022-12-05T11:13:17.807Z,9.61
2022-12-05T11:14:20.578Z,10.19
2022-12-05T11:15:23.660Z,10.04
2022-12-05T11:16:26.882Z,8.95
2022-12-05T11:17:29.907Z,8.59
2022-12-05T11:18:32.889Z,9.12
2022-12-05T11:19:35.781Z,8.36
2022-12-05T11:20:38.539Z,8.68
2022-12-05T11:21:41.328Z,8.61
2022-12-05T11:22:48.677Z,9.15
2022-12-05T11:23:50.145Z,9.38
2022-12-05T11:24:52.903Z,10.31
2022-12-05T11:25:55.879Z,10.69
2022-12-05T11:26:58.550Z,10.78
2022-12-05T11:28:02.024Z,12.05
2022-12-05T11:29:05.007Z,12.24
2022-12-05T11:30:07.888Z,12.42
2022-12-05T11:31:10.899Z,13.84
2022-12-05T11:32:13.945Z,13.48
2022-12-05T11:33:16.922Z,13.85
2022-12-05T11:34:19.794Z,14.46
2022-12-05T11:35:22.674Z,14.92
2022-12-05T11:36:25.969Z,15.17
2022-12-05T11:37:29.045Z,15.33
2022-12-05T11:38:32.012Z,15.71
2022-12-05T11:39:35.408Z,16.80
2022-12-05T11:40:38.927Z,17.85
2022-12-05T11:41:41.567Z,17.16
2022-12-05T11:42:44.334Z,17.48
2022-12-05T11:43:47.413Z,18.37
2022-12-05T11:44:50.500Z,18.03
2022-12-05T11:45:53.603Z,16.62
2022-12-05T11:46:56.653Z,17.98
2022-12-05T11:47:59.545Z,18.44
2022-12-05T11:49:02.525Z,19.09
2022-12-05T11:50:05.381Z,20.85
2022-12-05T11:51:08.355Z,21.04
2022-12-05T11:52:11.654Z,21.17
2022-12-05T11:53:14.515Z,22.41
2022-12-05T11:54:30.394Z,21.48
2022-12-05T11:55:22.556Z,22.43
2022-12-05T11:56:28.468Z,21.92
2022-12-05T11:57:31.750Z,22.22
2022-12-05T11:58:35.227Z,22.11
2022-12-05T11:59:38.619Z,22.13
2022-12-05T12:00:42.830Z,20.74
2022-12-05T12:01:45.591Z,19.51
2022-12-05T12:02:48.414Z,20.38
2022-12-05T12:03:51.626Z,19.14
2022-12-05T12:04:54.831Z,19.98
2022-12-05T12:05:58.326Z,19.56
2022-12-05T12:07:01.311Z,20.43
2022-12-05T12:08:04.531Z,20.18
2022-12-05T12:09:07.768Z,19.46
2022-12-05T12:10:11.050Z,20.78
2022-12-05T12:11:14.335Z,20.63
2022-12-05T12:12:17.008Z,18.88
2022-12-05T12:13:19.891Z,18.37
2022-12-05T12:14:22.757Z,18.63
2022-12-05T12:15:26.012Z,19.32
2022-12-05T12:16:29.383Z,20.33
2022-12-05T12:17:32.490Z,19.73
2022-12-05T12:18:35.688Z,17.60
2022-12-05T12:19:38.685Z,17.44
2022-12-05T12:20:41.438Z,16.29
2022-12-05T12:21:44.936Z,16.95
2022-12-05T12:22:48.320Z,17.41
2022-12-05T12:23:51.342Z,17.96
2022-12-05T12:24:54.483Z,18.57
2022-12-05T12:25:57.351Z,18.04
2022-12-05T12:27:00.632Z,17.78
2022-12-05T12:28:04.608Z,19.71
2022-12-05T12:29:07.914Z,19.11
2022-12-05T12:30:11.412Z,19.86
2022-12-05T12:31:14.834Z,19.24
2022-12-05T12:32:18.384Z,19.34
2022-12-05T12:33:26.882Z,20.15
2022-12-05T12:34:25.990Z,21.23
2022-12-05T12:35:29.164Z,22.10
2022-12-05T12:36:32.049Z,21.39
2022-12-05T12:37:35.219Z,21.21
2022-12-05T12:38:38.300Z,21.76
2022-12-05T12:39:41.271Z,22.53
2022-12-05T12:40:44.253Z,21.29
2022-12-05T12:41:47.329Z,22.78
2022-12-05T12:42:50.506Z,22.87
2022-12-05T12:43:54.550Z,23.28
2022-12-05T12:44:58.381Z,23.49
2022-12-05T12:46:05.378Z,24.42
2022-12-05T12:47:06.630Z,24.13
2022-12-05T12:48:09.804Z,23.26
2022-12-05T12:49:12.675Z,21.55
2022-12-05T12:50:15.351Z,23.05
2022-12-05T12:51:18.021Z,23.27
2022-12-05T12:52:20.893Z,23.36
2022-12-05T12:53:23.869Z,23.15
2022-12-05T12:54:47.340Z,23.30
2022-12-05T12:55:31.345Z,22.52
2022-12-05T12:56:34.430Z,22.72
2022-12-05T12:57:38.037Z,22.09
2022-12-05T12:58:41.106Z,21.54
2022-12-05T12:59:43.987Z,21.66
2022-12-05T13:00:47.123Z,21.66
2022-12-05T13:01:50.251Z,22.52
2022-12-05T13:02:53.070Z,21.30
2022-12-05T13:03:56.000Z,21.14
2022-12-05T13:04:59.301Z,20.77
2022-12-05T13:06:02.259Z,21.12
2022-12-05T13:07:05.230Z,21.81
2022-12-05T13:08:08.501Z,21.95
2022-12-05T13:09:11.387Z,22.35
2022-12-05T13:10:14.358Z,22.19
2022-12-05T13:11:17.364Z,19.78
2022-12-05T13:12:20.175Z,19.82
2022-12-05T13:13:22.882Z,20.45
2022-12-05T13:14:26.185Z,19.85
2022-12-05T13:15:29.166Z,21.04
2022-12-05T13:16:32.499Z,19.76
2022-12-05T13:17:35.822Z,19.16
2022-12-05T13:18:46.500Z,19.48
2022-12-05T13:19:49.961Z,19.91
2022-12-05T13:20:53.552Z,20.38
2022-12-05T13:21:56.543Z,18.96
2022-12-05T13:23:04.705Z,20.35
2022-12-05T13:24:05.146Z,20.23
2022-12-05T13:25:09.370Z,19.28
2022-12-05T13:26:12.861Z,18.76
2022-12-05T13:27:15.845Z,20.16
2022-12-05T13:28:22.806Z,19.26
2022-12-05T13:29:23.012Z,19.45
2022-12-05T13:30:25.772Z,20.05
2022-12-05T13:31:29.316Z,20.13
2022-12-05T13:32:31.942Z,18.94
2022-12-05T13:33:35.221Z,19.72
2022-12-05T13:34:38.315Z,20.61
2022-12-05T13:35:41.497Z,19.63
2022-12-05T13:36:44.464Z,19.44
2022-12-05T13:37:47.645Z,18.27
2022-12-05T13:38:50.408Z,18.12
2022-12-05T13:39:53.487Z,17.28
2022-12-05T13:40:56.868Z,17.25
2022-12-05T13:42:00.575Z,18.15
2022-12-05T13:43:03.550Z,18.15
2022-12-05T13:44:07.175Z,18.40
2022-12-05T13:45:10.027Z,18.30
2022-12-05T13:46:13.452Z,18.90
2022-12-05T13:47:16.279Z,17.84
2022-12-05T13:48:19.152Z,17.54
2022-12-05T13:49:22.132Z,17.42
2022-12-05T13:50:25.549Z,16.93
2022-12-05T13:51:28.894Z,15.97
2022-12-05T13:52:31.896Z,16.38
2022-12-05T13:53:34.953Z,15.99
2022-12-05T13:54:37.853Z,16.32
2022-12-05T13:55:40.826Z,16.32
2022-12-05T13:56:43.993Z,14.45
2022-12-05T13:57:46.788Z,15.06
2022-12-05T13:58:50.051Z,15.08
2022-12-05T13:59:52.925Z,15.06
2022-12-05T14:00:56.141Z,13.98
2022-12-05T14:01:59.469Z,15.14
2022-12-05T14:03:02.638Z,15.03
2022-12-05T14:04:05.856Z,15.09
2022-12-05T14:05:09.559Z,14.55
2022-12-05T14:06:12.929Z,14.54
2022-12-05T14:07:16.007Z,15.62
2022-12-05T14:08:19.148Z,15.19
2022-12-05T14:09:21.561Z,15.45